sensor_id;sensor_type;location;lat;lon;timestamp;pressure;altitude;pressure_sealevel;temperature;humidity
34586;BME280;20816;50.950;11.108;2023-07-13T00:00:11;98207.94;;;18.53;77.62
34586;BME280;20816;50.950;11.108;2023-07-13T00:02:38;98200.72;;;18.55;76.62
34586;BME280;20816;50.950;11.108;2023-07-13T00:05:05;98203.19;;;18.43;77.09
34586;BME280;20816;50.950;11.108;2023-07-13T00:07:33;98215.41;;;18.32;77.96
34586;BME280;20816;50.950;11.108;2023-07-13T00:10:00;98206.66;;;18.30;78.10
34586;BME280;20816;50.950;11.108;2023-07-13T00:12:31;98213.69;;;18.31;77.91
34586;BME280;20816;50.950;11.108;2023-07-13T00:15:00;98226.44;;;18.26;78.25
34586;BME280;20816;50.950;11.108;2023-07-13T00:17:28;98230.06;;;18.09;78.64
34586;BME280;20816;50.950;11.108;2023-07-13T00:19:56;98236.78;;;18.00;79.08
34586;BME280;20816;50.950;11.108;2023-07-13T00:22:24;98237.72;;;17.99;79.26
34586;BME280;20816;50.950;11.108;2023-07-13T00:24:53;98242.09;;;18.00;79.45
34586;BME280;20816;50.950;11.108;2023-07-13T00:27:23;98238.56;;;18.00;80.00
34586;BME280;20816;50.950;11.108;2023-07-13T00:29:50;98245.34;;;18.05;79.09
34586;BME280;20816;50.950;11.108;2023-07-13T00:32:17;98238.91;;;18.09;79.10
34586;BME280;20816;50.950;11.108;2023-07-13T00:34:43;98240.63;;;18.10;78.65
34586;BME280;20816;50.950;11.108;2023-07-13T00:37:10;98241.47;;;18.11;79.07
34586;BME280;20816;50.950;11.108;2023-07-13T00:39:38;98237.25;;;18.07;79.58
34586;BME280;20816;50.950;11.108;2023-07-13T00:42:06;98230.75;;;18.12;79.35
34586;BME280;20816;50.950;11.108;2023-07-13T00:44:33;98234.44;;;18.10;79.34
34586;BME280;20816;50.950;11.108;2023-07-13T00:47:00;98231.59;;;18.13;79.85
34586;BME280;20816;50.950;11.108;2023-07-13T00:49:29;98231.94;;;18.07;79.11
34586;BME280;20816;50.950;11.108;2023-07-13T00:52:04;98229.28;;;18.07;78.80
34586;BME280;20816;50.950;11.108;2023-07-13T00:54:43;98229.22;;;18.08;78.63
34586;BME280;20816;50.950;11.108;2023-07-13T00:57:15;98229.38;;;18.05;78.61
34586;BME280;20816;50.950;11.108;2023-07-13T00:59:47;98229.16;;;17.94;79.50
34586;BME280;20816;50.950;11.108;2023-07-13T01:02:15;98230.09;;;17.93;79.50
34586;BME280;20816;50.950;11.108;2023-07-13T01:04:42;98233.09;;;17.87;80.05
34586;BME280;20816;50.950;11.108;2023-07-13T01:07:11;98227.56;;;17.76;80.66
34586;BME280;20816;50.950;11.108;2023-07-13T01:09:39;98232.09;;;17.74;81.83
34586;BME280;20816;50.950;11.108;2023-07-13T01:12:06;98232.00;;;17.75;79.76
34586;BME280;20816;50.950;11.108;2023-07-13T01:14:33;98225.66;;;17.78;78.96
34586;BME280;20816;50.950;11.108;2023-07-13T01:17:00;98214.19;;;17.77;79.46
34586;BME280;20816;50.950;11.108;2023-07-13T01:19:56;98216.94;;;17.76;78.76
34586;BME280;20816;50.950;11.108;2023-07-13T01:22:19;98216.94;;;17.76;78.14
34586;BME280;20816;50.950;11.108;2023-07-13T01:24:52;98227.72;;;17.73;78.57
34586;BME280;20816;50.950;11.108;2023-07-13T01:27:22;98223.06;;;17.60;78.83
34586;BME280;20816;50.950;11.108;2023-07-13T01:29:52;98222.03;;;17.47;79.66
34586;BME280;20816;50.950;11.108;2023-07-13T01:32:22;98234.03;;;17.38;79.58
34586;BME280;20816;50.950;11.108;2023-07-13T01:34:51;98229.56;;;17.23;79.86
34586;BME280;20816;50.950;11.108;2023-07-13T01:37:21;98234.34;;;17.17;80.70
34586;BME280;20816;50.950;11.108;2023-07-13T01:39:48;98228.69;;;17.23;80.44
34586;BME280;20816;50.950;11.108;2023-07-13T01:42:15;98234.88;;;17.23;79.87
34586;BME280;20816;50.950;11.108;2023-07-13T01:44:42;98230.84;;;17.32;79.95
34586;BME280;20816;50.950;11.108;2023-07-13T01:47:09;98236.44;;;17.43;79.24
34586;BME280;20816;50.950;11.108;2023-07-13T01:49:36;98230.09;;;17.46;78.29
34586;BME280;20816;50.950;11.108;2023-07-13T01:52:04;98234.22;;;17.51;79.00
34586;BME280;20816;50.950;11.108;2023-07-13T01:54:31;98234.81;;;17.56;78.49
34586;BME280;20816;50.950;11.108;2023-07-13T01:57:00;98238.84;;;17.63;78.18
34586;BME280;20816;50.950;11.108;2023-07-13T01:59:27;98238.44;;;17.71;77.70
34586;BME280;20816;50.950;11.108;2023-07-13T02:01:53;98246.75;;;17.81;77.94
34586;BME280;20816;50.950;11.108;2023-07-13T02:04:21;98251.91;;;17.84;76.61
34586;BME280;20816;50.950;11.108;2023-07-13T02:06:47;98247.00;;;17.92;77.54
34586;BME280;20816;50.950;11.108;2023-07-13T02:09:14;98258.06;;;18.00;76.90
34586;BME280;20816;50.950;11.108;2023-07-13T02:11:41;98261.84;;;17.96;77.56
34586;BME280;20816;50.950;11.108;2023-07-13T02:14:07;98255.47;;;17.99;77.23
34586;BME280;20816;50.950;11.108;2023-07-13T02:16:34;98257.28;;;17.98;77.90
34586;BME280;20816;50.950;11.108;2023-07-13T02:19:01;98257.66;;;17.92;78.37
34586;BME280;20816;50.950;11.108;2023-07-13T02:21:28;98258.41;;;17.94;78.65
34586;BME280;20816;50.950;11.108;2023-07-13T02:23:55;98258.22;;;17.97;78.38
34586;BME280;20816;50.950;11.108;2023-07-13T02:26:24;98248.78;;;17.91;78.47
34586;BME280;20816;50.950;11.108;2023-07-13T02:28:51;98260.13;;;17.95;78.72
34586;BME280;20816;50.950;11.108;2023-07-13T02:31:18;98251.72;;;17.87;78.74
34586;BME280;20816;50.950;11.108;2023-07-13T02:33:45;98259.94;;;17.82;79.43
34586;BME280;20816;50.950;11.108;2023-07-13T02:36:13;98250.16;;;17.83;79.63
34586;BME280;20816;50.950;11.108;2023-07-13T02:38:41;98258.09;;;17.84;79.20
34586;BME280;20816;50.950;11.108;2023-07-13T02:41:08;98256.72;;;17.77;79.60
34586;BME280;20816;50.950;11.108;2023-07-13T02:43:37;98261.16;;;17.77;79.69
34586;BME280;20816;50.950;11.108;2023-07-13T02:46:03;98256.00;;;17.74;80.08
34586;BME280;20816;50.950;11.108;2023-07-13T02:48:35;98252.59;;;17.72;80.40
34586;BME280;20816;50.950;11.108;2023-07-13T02:51:02;98263.53;;;17.65;80.33
34586;BME280;20816;50.950;11.108;2023-07-13T02:53:29;98264.75;;;17.60;80.94
34586;BME280;20816;50.950;11.108;2023-07-13T02:55:56;98269.44;;;17.55;80.79
34586;BME280;20816;50.950;11.108;2023-07-13T02:58:23;98264.97;;;17.55;80.19
34586;BME280;20816;50.950;11.108;2023-07-13T03:00:51;98257.84;;;17.40;80.83
34586;BME280;20816;50.950;11.108;2023-07-13T03:03:18;98264.09;;;17.23;81.68
34586;BME280;20816;50.950;11.108;2023-07-13T03:05:45;98263.72;;;17.14;81.65
34586;BME280;20816;50.950;11.108;2023-07-13T03:08:16;98261.03;;;16.98;82.61
34586;BME280;20816;50.950;11.108;2023-07-13T03:10:44;98259.72;;;16.89;83.61
34586;BME280;20816;50.950;11.108;2023-07-13T03:13:11;98260.50;;;16.91;82.79
34586;BME280;20816;50.950;11.108;2023-07-13T03:15:37;98267.41;;;16.78;83.72
34586;BME280;20816;50.950;11.108;2023-07-13T03:18:04;98270.19;;;16.75;83.97
34586;BME280;20816;50.950;11.108;2023-07-13T03:20:34;98272.25;;;16.70;84.19
34586;BME280;20816;50.950;11.108;2023-07-13T03:23:01;98280.72;;;16.59;84.56
34586;BME280;20816;50.950;11.108;2023-07-13T03:25:28;98277.97;;;16.61;83.92
34586;BME280;20816;50.950;11.108;2023-07-13T03:27:54;98281.91;;;16.53;84.19
34586;BME280;20816;50.950;11.108;2023-07-13T03:30:21;98278.38;;;16.53;83.81
34586;BME280;20816;50.950;11.108;2023-07-13T03:32:48;98287.53;;;16.47;84.64
34586;BME280;20816;50.950;11.108;2023-07-13T03:35:15;98290.31;;;16.44;84.68
34586;BME280;20816;50.950;11.108;2023-07-13T03:37:41;98293.13;;;16.41;85.15
34586;BME280;20816;50.950;11.108;2023-07-13T03:40:10;98291.25;;;16.43;85.60
34586;BME280;20816;50.950;11.108;2023-07-13T03:42:37;98291.13;;;16.46;85.32
34586;BME280;20816;50.950;11.108;2023-07-13T03:45:04;98286.41;;;16.51;85.89
34586;BME280;20816;50.950;11.108;2023-07-13T03:47:31;98290.78;;;16.52;85.88
34586;BME280;20816;50.950;11.108;2023-07-13T03:49:58;98293.38;;;16.54;85.84
34586;BME280;20816;50.950;11.108;2023-07-13T03:52:24;98290.00;;;16.50;86.20
34586;BME280;20816;50.950;11.108;2023-07-13T03:54:51;98279.47;;;16.49;86.16
34586;BME280;20816;50.950;11.108;2023-07-13T03:57:18;98288.75;;;16.40;86.92
34586;BME280;20816;50.950;11.108;2023-07-13T03:59:45;98291.56;;;16.37;87.26
34586;BME280;20816;50.950;11.108;2023-07-13T04:02:12;98294.84;;;16.42;87.38
34586;BME280;20816;50.950;11.108;2023-07-13T04:04:39;98289.41;;;16.45;85.55
34586;BME280;20816;50.950;11.108;2023-07-13T04:07:07;98292.97;;;16.44;86.33
34586;BME280;20816;50.950;11.108;2023-07-13T04:09:35;98305.38;;;16.44;85.90
34586;BME280;20816;50.950;11.108;2023-07-13T04:12:02;98308.47;;;16.35;86.03
34586;BME280;20816;50.950;11.108;2023-07-13T04:14:29;98301.25;;;16.38;85.84
34586;BME280;20816;50.950;11.108;2023-07-13T04:16:56;98302.97;;;16.39;86.20
34586;BME280;20816;50.950;11.108;2023-07-13T04:19:24;98317.78;;;16.43;86.62
34586;BME280;20816;50.950;11.108;2023-07-13T04:21:50;98312.47;;;16.43;86.97
34586;BME280;20816;50.950;11.108;2023-07-13T04:24:17;98310.47;;;16.48;86.79
34586;BME280;20816;50.950;11.108;2023-07-13T04:26:44;98315.75;;;16.48;87.52
34586;BME280;20816;50.950;11.108;2023-07-13T04:29:10;98317.88;;;16.59;87.70
34586;BME280;20816;50.950;11.108;2023-07-13T04:31:37;98306.88;;;16.67;87.47
34586;BME280;20816;50.950;11.108;2023-07-13T04:34:04;98318.84;;;16.75;87.35
34586;BME280;20816;50.950;11.108;2023-07-13T04:36:30;98315.47;;;16.89;87.35
34586;BME280;20816;50.950;11.108;2023-07-13T04:38:57;98313.75;;;17.05;87.00
34586;BME280;20816;50.950;11.108;2023-07-13T04:41:24;98315.50;;;17.22;86.64
34586;BME280;20816;50.950;11.108;2023-07-13T04:43:51;98324.38;;;17.38;86.21
34586;BME280;20816;50.950;11.108;2023-07-13T04:46:22;98332.19;;;17.57;85.83
34586;BME280;20816;50.950;11.108;2023-07-13T04:48:49;98328.41;;;17.79;84.78
34586;BME280;20816;50.950;11.108;2023-07-13T04:51:15;98325.84;;;17.93;84.55
34586;BME280;20816;50.950;11.108;2023-07-13T04:53:43;98324.78;;;17.96;84.15
34586;BME280;20816;50.950;11.108;2023-07-13T04:56:09;98333.19;;;18.19;83.81
34586;BME280;20816;50.950;11.108;2023-07-13T04:58:36;98332.47;;;18.32;83.13
34586;BME280;20816;50.950;11.108;2023-07-13T05:01:05;98340.84;;;18.56;82.20
34586;BME280;20816;50.950;11.108;2023-07-13T05:03:32;98346.25;;;18.70;81.94
34586;BME280;20816;50.950;11.108;2023-07-13T05:06:04;98339.28;;;18.83;79.90
34586;BME280;20816;50.950;11.108;2023-07-13T05:08:31;98337.19;;;18.88;80.20
34586;BME280;20816;50.950;11.108;2023-07-13T05:11:03;98332.53;;;18.92;79.03
34586;BME280;20816;50.950;11.108;2023-07-13T05:13:30;98328.81;;;18.94;79.13
34586;BME280;20816;50.950;11.108;2023-07-13T05:16:02;98328.19;;;19.19;78.04
34586;BME280;20816;50.950;11.108;2023-07-13T05:18:30;98326.59;;;19.45;77.41
34586;BME280;20816;50.950;11.108;2023-07-13T05:20:58;98340.09;;;19.42;77.19
34586;BME280;20816;50.950;11.108;2023-07-13T05:23:25;98332.59;;;19.49;77.45
34586;BME280;20816;50.950;11.108;2023-07-13T05:25:51;98338.88;;;19.48;77.21
34586;BME280;20816;50.950;11.108;2023-07-13T05:28:18;98337.94;;;19.49;77.11
34586;BME280;20816;50.950;11.108;2023-07-13T05:30:46;98337.72;;;19.52;78.16
34586;BME280;20816;50.950;11.108;2023-07-13T05:33:13;98334.09;;;19.53;77.69
34586;BME280;20816;50.950;11.108;2023-07-13T05:35:40;98337.34;;;19.44;78.27
34586;BME280;20816;50.950;11.108;2023-07-13T05:38:07;98345.66;;;19.39;78.13
34586;BME280;20816;50.950;11.108;2023-07-13T05:40:33;98352.66;;;19.26;78.42
34586;BME280;20816;50.950;11.108;2023-07-13T05:43:00;98355.59;;;19.21;78.88
34586;BME280;20816;50.950;11.108;2023-07-13T05:45:27;98346.69;;;19.51;78.45
34586;BME280;20816;50.950;11.108;2023-07-13T05:47:53;98333.31;;;20.08;76.19
34586;BME280;20816;50.950;11.108;2023-07-13T05:50:20;98338.25;;;20.68;73.53
34586;BME280;20816;50.950;11.108;2023-07-13T05:52:47;98343.38;;;21.11;71.70
34586;BME280;20816;50.950;11.108;2023-07-13T05:55:14;98355.41;;;21.43;70.77
34586;BME280;20816;50.950;11.108;2023-07-13T05:57:41;98353.75;;;21.66;69.27
34586;BME280;20816;50.950;11.108;2023-07-13T06:00:10;98349.25;;;21.92;69.10
34586;BME280;20816;50.950;11.108;2023-07-13T06:02:38;98348.56;;;22.38;67.50
34586;BME280;20816;50.950;11.108;2023-07-13T06:05:05;98349.25;;;22.77;66.99
34586;BME280;20816;50.950;11.108;2023-07-13T06:07:31;98351.88;;;23.25;64.92
34586;BME280;20816;50.950;11.108;2023-07-13T06:09:58;98358.59;;;23.53;64.00
34586;BME280;20816;50.950;11.108;2023-07-13T06:12:26;98353.41;;;23.73;63.18
34586;BME280;20816;50.950;11.108;2023-07-13T06:14:53;98353.41;;;23.62;63.48
34586;BME280;20816;50.950;11.108;2023-07-13T06:17:19;98355.94;;;23.86;62.64
34586;BME280;20816;50.950;11.108;2023-07-13T06:19:46;98350.72;;;23.96;61.62
34586;BME280;20816;50.950;11.108;2023-07-13T06:22:13;98351.66;;;24.28;61.15
34586;BME280;20816;50.950;11.108;2023-07-13T06:24:39;98355.78;;;24.44;61.18
34586;BME280;20816;50.950;11.108;2023-07-13T06:27:06;98351.78;;;24.70;60.20
34586;BME280;20816;50.950;11.108;2023-07-13T06:29:33;98356.03;;;24.41;59.93
34586;BME280;20816;50.950;11.108;2023-07-13T06:31:59;98358.31;;;24.88;58.75
34586;BME280;20816;50.950;11.108;2023-07-13T06:34:26;98358.22;;;25.32;58.63
34586;BME280;20816;50.950;11.108;2023-07-13T06:36:52;98362.34;;;25.15;57.91
34586;BME280;20816;50.950;11.108;2023-07-13T06:39:19;98364.72;;;25.08;57.88
34586;BME280;20816;50.950;11.108;2023-07-13T06:41:45;98365.53;;;24.88;57.32
34586;BME280;20816;50.950;11.108;2023-07-13T06:44:12;98361.94;;;25.40;55.66
34586;BME280;20816;50.950;11.108;2023-07-13T06:46:38;98362.59;;;25.54;55.18
34586;BME280;20816;50.950;11.108;2023-07-13T06:49:05;98371.09;;;26.01;55.72
34586;BME280;20816;50.950;11.108;2023-07-13T06:51:32;98368.59;;;26.28;54.97
34586;BME280;20816;50.950;11.108;2023-07-13T06:53:58;98369.44;;;26.19;53.74
34586;BME280;20816;50.950;11.108;2023-07-13T06:56:25;98370.91;;;26.33;53.43
34586;BME280;20816;50.950;11.108;2023-07-13T06:58:52;98369.91;;;26.34;53.70
34586;BME280;20816;50.950;11.108;2023-07-13T07:01:18;98366.72;;;26.69;53.59
34586;BME280;20816;50.950;11.108;2023-07-13T07:03:45;98369.41;;;26.78;53.07
34586;BME280;20816;50.950;11.108;2023-07-13T07:06:14;98364.56;;;26.43;53.67
34586;BME280;20816;50.950;11.108;2023-07-13T07:08:41;98365.72;;;26.79;53.63
34586;BME280;20816;50.950;11.108;2023-07-13T07:11:11;98375.50;;;26.51;53.91
34586;BME280;20816;50.950;11.108;2023-07-13T07:13:39;98368.72;;;26.67;53.36
34586;BME280;20816;50.950;11.108;2023-07-13T07:16:06;98371.56;;;26.65;53.63
34586;BME280;20816;50.950;11.108;2023-07-13T07:18:33;98373.25;;;27.53;52.07
34586;BME280;20816;50.950;11.108;2023-07-13T07:21:00;98368.41;;;27.47;52.27
34586;BME280;20816;50.950;11.108;2023-07-13T07:23:26;98368.59;;;26.97;52.98
34586;BME280;20816;50.950;11.108;2023-07-13T07:25:53;98375.50;;;26.51;53.23
34586;BME280;20816;50.950;11.108;2023-07-13T07:28:20;98370.13;;;26.21;54.13
34586;BME280;20816;50.950;11.108;2023-07-13T07:30:53;98367.28;;;27.01;53.34
34586;BME280;20816;50.950;11.108;2023-07-13T07:33:40;98367.19;;;27.13;53.57
34586;BME280;20816;50.950;11.108;2023-07-13T07:36:07;98372.13;;;27.27;52.25
34586;BME280;20816;50.950;11.108;2023-07-13T07:38:36;98359.63;;;28.19;51.10
34586;BME280;20816;50.950;11.108;2023-07-13T07:41:04;98370.69;;;27.42;52.34
34586;BME280;20816;50.950;11.108;2023-07-13T07:43:34;98368.59;;;27.83;51.63
34586;BME280;20816;50.950;11.108;2023-07-13T07:46:01;98369.94;;;28.43;51.71
34586;BME280;20816;50.950;11.108;2023-07-13T07:48:29;98365.84;;;28.02;50.85
34586;BME280;20816;50.950;11.108;2023-07-13T07:50:56;98376.56;;;25.68;54.19
34586;BME280;20816;50.950;11.108;2023-07-13T07:53:23;98370.97;;;26.52;53.78
34586;BME280;20816;50.950;11.108;2023-07-13T07:55:49;98373.00;;;27.37;52.63
34586;BME280;20816;50.950;11.108;2023-07-13T07:58:20;98370.31;;;27.84;51.41
34586;BME280;20816;50.950;11.108;2023-07-13T08:00:50;98369.31;;;27.19;52.63
34586;BME280;20816;50.950;11.108;2023-07-13T08:03:20;98377.81;;;25.85;54.46
34586;BME280;20816;50.950;11.108;2023-07-13T08:05:52;98377.34;;;26.11;55.33
34586;BME280;20816;50.950;11.108;2023-07-13T08:08:22;98369.13;;;27.01;52.65
34586;BME280;20816;50.950;11.108;2023-07-13T08:10:49;98366.16;;;27.33;53.02
34586;BME280;20816;50.950;11.108;2023-07-13T08:13:15;98368.66;;;27.63;52.05
34586;BME280;20816;50.950;11.108;2023-07-13T08:15:43;98369.78;;;28.08;50.81
34586;BME280;20816;50.950;11.108;2023-07-13T08:18:09;98369.75;;;28.45;50.84
34586;BME280;20816;50.950;11.108;2023-07-13T08:20:38;98373.94;;;28.57;49.56
34586;BME280;20816;50.950;11.108;2023-07-13T08:23:05;98361.16;;;27.48;50.98
34586;BME280;20816;50.950;11.108;2023-07-13T08:25:32;98369.97;;;27.50;51.08
34586;BME280;20816;50.950;11.108;2023-07-13T08:27:59;98374.09;;;26.67;52.02
34586;BME280;20816;50.950;11.108;2023-07-13T08:30:26;98370.66;;;27.61;51.41
34586;BME280;20816;50.950;11.108;2023-07-13T08:32:53;98371.41;;;27.91;49.19
34586;BME280;20816;50.950;11.108;2023-07-13T08:35:19;98359.16;;;28.97;48.31
34586;BME280;20816;50.950;11.108;2023-07-13T08:37:46;98361.63;;;29.08;46.39
34586;BME280;20816;50.950;11.108;2023-07-13T08:40:13;98368.59;;;28.93;45.80
34586;BME280;20816;50.950;11.108;2023-07-13T08:42:54;98367.41;;;29.13;44.47
34586;BME280;20816;50.950;11.108;2023-07-13T08:45:43;98365.69;;;29.30;44.74
34586;BME280;20816;50.950;11.108;2023-07-13T08:48:18;98372.59;;;29.24;45.85
34586;BME280;20816;50.950;11.108;2023-07-13T08:50:52;98368.88;;;29.25;46.42
34586;BME280;20816;50.950;11.108;2023-07-13T08:53:43;98373.66;;;29.75;44.93
34586;BME280;20816;50.950;11.108;2023-07-13T08:56:24;98381.25;;;29.98;44.51
34586;BME280;20816;50.950;11.108;2023-07-13T08:58:59;98372.84;;;29.83;44.94
34586;BME280;20816;50.950;11.108;2023-07-13T09:04:15;98383.03;;;27.54;48.02
34586;BME280;20816;50.950;11.108;2023-07-13T09:06:59;98387.63;;;27.91;46.29
34586;BME280;20816;50.950;11.108;2023-07-13T09:09:40;98383.06;;;27.35;46.13
34586;BME280;20816;50.950;11.108;2023-07-13T09:12:59;98371.56;;;26.75;46.83
34586;BME280;20816;50.950;11.108;2023-07-13T09:15:17;98381.34;;;27.53;45.32
34586;BME280;20816;50.950;11.108;2023-07-13T09:17:54;98382.22;;;27.25;45.38
34586;BME280;20816;50.950;11.108;2023-07-13T09:20:35;98386.31;;;27.48;45.34
34586;BME280;20816;50.950;11.108;2023-07-13T09:23:07;98386.91;;;27.03;45.64
34586;BME280;20816;50.950;11.108;2023-07-13T09:25:37;98390.75;;;27.96;44.93
34586;BME280;20816;50.950;11.108;2023-07-13T09:28:14;98381.53;;;28.16;43.76
34586;BME280;20816;50.950;11.108;2023-07-13T09:30:50;98387.78;;;27.23;44.95
34586;BME280;20816;50.950;11.108;2023-07-13T09:33:20;98397.75;;;27.89;44.95
34586;BME280;20816;50.950;11.108;2023-07-13T09:35:47;98392.84;;;28.85;44.15
34586;BME280;20816;50.950;11.108;2023-07-13T09:38:16;98400.72;;;28.23;44.18
34586;BME280;20816;50.950;11.108;2023-07-13T09:41:04;98386.22;;;28.97;43.34
34586;BME280;20816;50.950;11.108;2023-07-13T09:44:01;98386.69;;;28.65;42.45
34586;BME280;20816;50.950;11.108;2023-07-13T09:46:28;98386.28;;;29.23;42.65
34586;BME280;20816;50.950;11.108;2023-07-13T09:48:55;98406.16;;;27.86;43.41
34586;BME280;20816;50.950;11.108;2023-07-13T09:51:22;98406.50;;;27.25;45.01
34586;BME280;20816;50.950;11.108;2023-07-13T09:53:49;98402.06;;;28.09;44.67
34586;BME280;20816;50.950;11.108;2023-07-13T09:56:24;98394.56;;;27.47;44.31
34586;BME280;20816;50.950;11.108;2023-07-13T09:58:52;98401.50;;;27.49;44.85
34586;BME280;20816;50.950;11.108;2023-07-13T10:01:35;98405.06;;;26.92;45.88
34586;BME280;20816;50.950;11.108;2023-07-13T10:04:10;98412.94;;;26.45;46.22
34586;BME280;20816;50.950;11.108;2023-07-13T10:06:39;98405.28;;;27.85;45.15
34586;BME280;20816;50.950;11.108;2023-07-13T10:09:10;98404.78;;;28.64;44.03
34586;BME280;20816;50.950;11.108;2023-07-13T10:11:39;98402.44;;;29.15;43.49
34586;BME280;20816;50.950;11.108;2023-07-13T10:14:14;98401.13;;;28.38;44.07
34586;BME280;20816;50.950;11.108;2023-07-13T10:16:43;98411.34;;;27.12;45.03
34586;BME280;20816;50.950;11.108;2023-07-13T10:19:21;98409.09;;;27.92;43.73
34586;BME280;20816;50.950;11.108;2023-07-13T10:21:53;98415.56;;;27.62;44.23
34586;BME280;20816;50.950;11.108;2023-07-13T10:24:25;98411.88;;;27.63;44.58
34586;BME280;20816;50.950;11.108;2023-07-13T10:29:28;98413.75;;;27.53;44.05
34586;BME280;20816;50.950;11.108;2023-07-13T10:31:56;98410.88;;;26.87;45.14
34586;BME280;20816;50.950;11.108;2023-07-13T10:34:24;98409.31;;;27.52;45.00
34586;BME280;20816;50.950;11.108;2023-07-13T10:36:51;98403.78;;;28.10;44.21
34586;BME280;20816;50.950;11.108;2023-07-13T10:39:23;98409.19;;;27.44;44.61
34586;BME280;20816;50.950;11.108;2023-07-13T10:41:54;98411.75;;;26.97;45.16
34586;BME280;20816;50.950;11.108;2023-07-13T10:44:30;98416.84;;;27.00;46.45
34586;BME280;20816;50.950;11.108;2023-07-13T10:47:01;98410.47;;;27.01;46.04
34586;BME280;20816;50.950;11.108;2023-07-13T10:49:31;98415.19;;;25.79;46.71
34586;BME280;20816;50.950;11.108;2023-07-13T10:51:59;98424.25;;;26.98;46.06
34586;BME280;20816;50.950;11.108;2023-07-13T10:57:19;98409.47;;;27.41;44.64
34586;BME280;20816;50.950;11.108;2023-07-13T11:00:33;98410.78;;;27.37;45.36
34586;BME280;20816;50.950;11.108;2023-07-13T11:02:35;98414.16;;;27.00;44.76
34586;BME280;20816;50.950;11.108;2023-07-13T11:05:25;98424.94;;;27.00;46.37
34586;BME280;20816;50.950;11.108;2023-07-13T11:08:11;98414.88;;;28.07;46.28
34586;BME280;20816;50.950;11.108;2023-07-13T11:10:54;98409.72;;;29.50;42.77
34586;BME280;20816;50.950;11.108;2023-07-13T11:19:38;98410.63;;;29.41;42.46
34586;BME280;20816;50.950;11.108;2023-07-13T11:22:15;98395.69;;;29.80;41.45
34586;BME280;20816;50.950;11.108;2023-07-13T11:27:25;98406.53;;;27.15;44.78
34586;BME280;20816;50.950;11.108;2023-07-13T11:30:08;98399.66;;;26.72;45.57
34586;BME280;20816;50.950;11.108;2023-07-13T11:32:35;98399.19;;;26.08;46.35
34586;BME280;20816;50.950;11.108;2023-07-13T11:35:03;98393.97;;;25.85;46.94
34586;BME280;20816;50.950;11.108;2023-07-13T11:37:30;98394.03;;;25.32;47.84
34586;BME280;20816;50.950;11.108;2023-07-13T11:39:57;98393.72;;;25.47;47.55
34586;BME280;20816;50.950;11.108;2023-07-13T11:42:24;98397.06;;;25.81;47.54
34586;BME280;20816;50.950;11.108;2023-07-13T11:44:52;98396.28;;;27.19;46.04
34586;BME280;20816;50.950;11.108;2023-07-13T11:47:40;98398.38;;;26.67;46.04
34586;BME280;20816;50.950;11.108;2023-07-13T11:50:18;98401.56;;;26.01;47.10
34586;BME280;20816;50.950;11.108;2023-07-13T11:52:45;98404.75;;;25.85;46.93
34586;BME280;20816;50.950;11.108;2023-07-13T11:55:14;98407.16;;;25.88;47.54
34586;BME280;20816;50.950;11.108;2023-07-13T11:57:50;98404.63;;;26.27;46.76
34586;BME280;20816;50.950;11.108;2023-07-13T12:00:22;98408.19;;;26.27;46.38
34586;BME280;20816;50.950;11.108;2023-07-13T12:02:51;98400.81;;;26.99;46.07
34586;BME280;20816;50.950;11.108;2023-07-13T12:05:20;98404.25;;;26.01;45.50
34586;BME280;20816;50.950;11.108;2023-07-13T12:07:48;98404.81;;;26.05;45.74
34586;BME280;20816;50.950;11.108;2023-07-13T12:12:58;98401.88;;;25.35;46.49
34586;BME280;20816;50.950;11.108;2023-07-13T12:15:34;98406.53;;;26.06;46.67
34586;BME280;20816;50.950;11.108;2023-07-13T12:18:03;98402.38;;;26.82;45.35
34586;BME280;20816;50.950;11.108;2023-07-13T12:20:37;98400.44;;;27.89;44.45
34586;BME280;20816;50.950;11.108;2023-07-13T12:23:06;98401.22;;;27.72;43.77
34586;BME280;20816;50.950;11.108;2023-07-13T12:25:41;98404.38;;;27.09;43.56
34586;BME280;20816;50.950;11.108;2023-07-13T12:28:21;98399.56;;;27.32;44.81
34586;BME280;20816;50.950;11.108;2023-07-13T12:30:49;98407.34;;;27.54;44.21
34586;BME280;20816;50.950;11.108;2023-07-13T12:33:16;98405.94;;;27.12;44.38
34586;BME280;20816;50.950;11.108;2023-07-13T12:35:50;98401.94;;;26.77;45.05
34586;BME280;20816;50.950;11.108;2023-07-13T12:38:19;98406.91;;;26.91;45.58
34586;BME280;20816;50.950;11.108;2023-07-13T12:40:50;98415.72;;;26.93;46.32
34586;BME280;20816;50.950;11.108;2023-07-13T12:43:20;98408.47;;;27.42;44.93
34586;BME280;20816;50.950;11.108;2023-07-13T12:46:01;98407.94;;;27.29;44.45
34586;BME280;20816;50.950;11.108;2023-07-13T12:48:28;98410.50;;;27.21;44.87
34586;BME280;20816;50.950;11.108;2023-07-13T12:51:13;98402.81;;;27.16;44.79
34586;BME280;20816;50.950;11.108;2023-07-13T12:53:43;98400.53;;;27.02;45.11
34586;BME280;20816;50.950;11.108;2023-07-13T12:56:23;98411.31;;;26.73;46.13
34586;BME280;20816;50.950;11.108;2023-07-13T12:58:58;98416.09;;;26.60;45.88
34586;BME280;20816;50.950;11.108;2023-07-13T13:01:27;98416.94;;;26.60;45.88
34586;BME280;20816;50.950;11.108;2023-07-13T13:03:55;98416.53;;;26.65;45.62
34586;BME280;20816;50.950;11.108;2023-07-13T13:06:25;98411.16;;;26.65;45.49
34586;BME280;20816;50.950;11.108;2023-07-13T13:08:58;98409.66;;;27.30;45.30
34586;BME280;20816;50.950;11.108;2023-07-13T13:11:27;98399.53;;;26.93;45.29
34586;BME280;20816;50.950;11.108;2023-07-13T13:13:54;98406.22;;;26.99;45.59
34586;BME280;20816;50.950;11.108;2023-07-13T13:16:23;98402.22;;;27.03;45.65
34586;BME280;20816;50.950;11.108;2023-07-13T13:18:53;98413.25;;;27.87;45.32
34586;BME280;20816;50.950;11.108;2023-07-13T13:21:20;98398.44;;;29.19;44.05